NCAR-RAP Real-Time Weather Data

Output produced by METARs form (14 October 2019  23:51 UTC)
found at http://weather.rap.ucar.edu/surface/
 
KSTL 142251Z 13007KT 10SM FEW250 19/04 A3002 RMK AO2 SLP167 T01940039
KSTL 142151Z 13005KT 10SM FEW250 21/01 A3003 RMK AO2 SLP169 T02110011
KSTL 142051Z 16007KT 10SM FEW250 21/02 A3005 RMK AO2 SLP173 T02110022 56019
KSTL 141951Z 21004KT 10SM FEW250 21/01 A3005 RMK AO2 SLP175 T02110006
KSTL 141851Z 23003KT 10SM FEW250 20/02 A3007 RMK AO2 SLP181 T02000017
KSTL 141751Z 15005KT 10SM CLR 19/01 A3011 RMK AO2 SLP193 T01890011 10194 20056 58010
KSTL 141651Z 00000KT 10SM CLR 17/06 A3013 RMK AO2 SLP201 T01670056
KSTL 141551Z 00000KT 10SM CLR 13/06 A3014 RMK AO2 SLP207 T01330061
KSTL 141451Z 00000KT 9SM CLR 11/06 A3014 RMK AO2 SLP205 T01110061 51023
KSTL 141351Z 00000KT 10SM CLR 09/07 A3013 RMK AO2 SLP201 T00940067
KSTL 141251Z 00000KT 10SM CLR 07/04 A3010 RMK AO2 SLP191 T00670044
KSTL 141151Z 00000KT 10SM CLR 07/04 A3007 RMK AO2 SLP183 T00670044 10094 20056 51008
KSTL 141051Z 33003KT 10SM CLR 06/04 A3007 RMK AO2 SLP181 T00610044
KSTL 140951Z 23003KT 10SM CLR 06/04 A3007 RMK AO2 SLP181 T00610039
KSTL 140851Z 23003KT 10SM CLR 08/05 A3005 RMK AO2 SLP171 T00780050 51006
KSTL 140751Z 00000KT 10SM CLR 08/05 A3004 RMK AO2 SLP170 T00780050
KSTL 140651Z 00000KT 10SM CLR 09/06 A3003 RMK AO2 SLP167 T00890056
KSTL 140551Z 00000KT 10SM CLR 09/06 A3003 RMK AO2 SLP165 T00940061 10156 20094 402110067 51014
KSTL 140451Z 22003KT 10SM CLR 10/06 A3001 RMK AO2 SLP162 T01000056
KSTL 140351Z 00000KT 10SM CLR 10/06 A3000 RMK AO2 SLP159 T01000061
KSTL 140251Z 28004KT 10SM CLR 13/06 A2998 RMK AO2 SLP152 T01280056 51017
KSTL 140151Z 26004KT 10SM CLR 13/05 A2997 RMK AO2 SLP147 T01330050
KSTL 140051Z 29004KT 10SM CLR 15/05 A2995 RMK AO2 SLP144 T01500050
KSTL 132351Z 28005KT 10SM CLR 16/04 A2993 RMK AO2 SLP136 T01560039 10211 20156 53005
KSTL 132251Z 27006KT 10SM CLR 19/03 A2992 RMK AO2 SLP130 T01940033
KSTL 132151Z 26009KT 10SM CLR 21/03 A2991 RMK AO2 SLP125 T02060028
KSTL 132051Z 27012KT 10SM CLR 21/02 A2992 RMK AO2 SLP128 T02110022 56016
KSTL 131951Z 25012KT 10SM CLR 20/02 A2993 RMK AO2 SLP132 T02000022
KSTL 131851Z 24010KT 10SM CLR 19/02 A2994 RMK AO2 SLP138 T01940022
KSTL 131751Z 25013G19KT 10SM CLR 18/02 A2997 RMK AO2 SLP146 T01780022 10178 20072 58005
KSTL 131651Z 23009G15KT 10SM CLR 16/03 A2998 RMK AO2 SLP153 T01610028
KSTL 131551Z 23008KT 10SM CLR 14/03 A2998 RMK AO2 SLP153 T01440028
KSTL 131451Z 27013KT 10SM CLR 13/02 A2998 RMK AO2 SLP153 T01280022 50007
KSTL 131351Z 25012KT 10SM FEW200 11/02 A2999 RMK AO2 SLP154 T01110022
KSTL 131251Z 23011KT 10SM FEW200 08/02 A2997 RMK AO2 SLP150 T00830017
KSTL 131151Z 23010KT 10SM FEW200 07/02 A2996 RMK AO2 SLP147 T00720017 10094 20067 51003
KSTL 131051Z 24005KT 10SM CLR 07/02 A2996 RMK AO2 SLP146 T00720017
KSTL 130951Z 23007KT 10SM CLR 08/02 A2996 RMK AO2 SLP144 T00830017
KSTL 130851Z 22012KT 10SM CLR 09/02 A2995 RMK AO2 SLP142 T00890017 55004
KSTL 130751Z 22011KT 10SM CLR 09/02 A2995 RMK AO2 SLP142 T00890017
KSTL 130651Z 22009KT 10SM CLR 09/01 A2996 RMK AO2 SLP145 T00940011
KSTL 130551Z 21008KT 10SM CLR 09/01 A2997 RMK AO2 SLP147 T00940011 10133 20094 401670017 56010
KSTL 130451Z 20011KT 10SM CLR 11/01 A2997 RMK AO2 SLP149 T01060006
KSTL 130351Z 20012G21KT 10SM FEW200 11/01 A2999 RMK AO2 SLP155 T01110006
KSTL 130251Z 20010KT 10SM FEW200 12/01 A2999 RMK AO2 SLP159 T01170011 56002
KSTL 130151Z 19006KT 10SM FEW200 12/01 A3000 RMK AO2 SLP163 T01170011
KSTL 130051Z 17008KT 10SM FEW200 13/01 A2999 RMK AO2 SLP159 T01280006